createdAt,value
2022-12-16T00:03:20.833Z,98626.59
2022-12-16T00:09:22.805Z,98637.16
2022-12-16T00:15:24.710Z,98639.66
2022-12-16T00:21:29.569Z,98648.19
2022-12-16T00:27:31.517Z,98659.34
2022-12-16T00:33:33.961Z,98656.00
2022-12-16T00:39:36.320Z,98649.31
2022-12-16T00:45:39.277Z,98651.72
2022-12-16T00:51:41.263Z,98658.59
2022-12-16T00:57:43.669Z,98652.81
2022-12-16T01:03:45.672Z,98641.56
2022-12-16T01:09:47.607Z,98638.38
2022-12-16T01:15:50.209Z,98643.06
2022-12-16T01:21:52.417Z,98646.22
2022-12-16T01:27:56.983Z,98654.94
2022-12-16T01:33:58.858Z,98657.06
2022-12-16T01:40:00.762Z,98663.38
2022-12-16T01:46:14.746Z,98657.44
2022-12-16T01:52:23.972Z,98662.19
2022-12-16T01:58:32.016Z,98660.59
2022-12-16T02:04:33.937Z,98661.25
2022-12-16T02:10:43.444Z,98661.16
2022-12-16T02:17:21.669Z,98663.84
2022-12-16T02:24:14.822Z,98663.94
2022-12-16T02:30:53.517Z,98636.41
2022-12-16T02:37:31.186Z,98636.78
2022-12-16T02:44:00.262Z,98640.94
2022-12-16T02:50:02.765Z,98641.13
2022-12-16T02:56:28.052Z,98643.91
2022-12-16T03:03:17.745Z,98631.88
2022-12-16T03:09:26.799Z,98634.63
2022-12-16T03:15:34.013Z,98645.38
2022-12-16T03:22:16.330Z,98634.09
2022-12-16T03:28:27.961Z,98635.09
2022-12-16T03:35:01.312Z,98636.13
2022-12-16T03:41:04.189Z,98628.97
2022-12-16T03:47:06.501Z,98634.63
2022-12-16T03:53:08.821Z,98650.56
2022-12-16T03:59:11.030Z,98637.50
2022-12-16T04:05:13.635Z,98642.28
2022-12-16T04:11:34.795Z,98658.31
2022-12-16T04:17:55.347Z,98662.22
2022-12-16T04:24:16.485Z,98666.91
2022-12-16T04:30:21.090Z,98675.84
2022-12-16T04:36:41.567Z,98684.50
2022-12-16T04:43:01.571Z,98685.97
2022-12-16T04:49:22.033Z,98686.47
2022-12-16T04:55:42.674Z,98687.75
2022-12-16T05:02:03.668Z,98691.88
2022-12-16T05:08:24.551Z,98699.78
2022-12-16T05:14:44.697Z,98692.22
2022-12-16T05:21:05.109Z,98702.50
2022-12-16T05:27:25.609Z,98707.09
2022-12-16T05:33:46.006Z,98719.97
2022-12-16T05:40:06.414Z,98734.06
2022-12-16T05:46:26.947Z,98733.63
2022-12-16T05:52:47.163Z,98740.47
2022-12-16T05:59:07.747Z,98746.84
2022-12-16T06:05:28.207Z,98763.59
2022-12-16T06:11:48.610Z,98763.84
2022-12-16T06:18:09.811Z,98768.63
2022-12-16T06:24:30.284Z,98780.16
2022-12-16T06:30:50.645Z,98781.91
2022-12-16T06:37:11.035Z,98797.44
2022-12-16T06:43:31.670Z,98807.81
2022-12-16T06:49:52.019Z,98809.88
2022-12-16T06:56:12.476Z,98820.81
2022-12-16T07:02:46.785Z,98851.53
2022-12-16T07:09:07.100Z,98851.44
2022-12-16T07:15:28.043Z,98856.63
2022-12-16T07:21:48.486Z,98879.69
2022-12-16T07:28:13.837Z,98892.25
2022-12-16T07:34:40.782Z,98897.53
2022-12-16T07:41:06.101Z,98913.22
2022-12-16T07:47:26.567Z,98923.00
2022-12-16T07:53:47.125Z,98936.19
2022-12-16T08:00:07.548Z,98957.59
2022-12-16T08:06:28.800Z,98965.94
2022-12-16T08:12:49.513Z,98980.47
2022-12-16T08:19:11.424Z,98980.84
2022-12-16T08:25:31.981Z,98983.88
2022-12-16T08:31:52.297Z,98989.25
2022-12-16T08:38:16.383Z,99009.00
2022-12-16T08:44:37.101Z,99005.25
2022-12-16T08:50:57.593Z,99012.47
2022-12-16T08:57:18.265Z,99021.41
2022-12-16T09:03:38.649Z,99022.84
2022-12-16T09:09:59.668Z,99037.81
2022-12-16T09:16:20.809Z,99040.97
2022-12-16T09:22:40.989Z,99046.69
2022-12-16T09:29:01.650Z,99057.38
2022-12-16T09:35:22.088Z,99059.53
2022-12-16T09:41:45.340Z,99055.22
2022-12-16T09:48:25.010Z,99067.28
2022-12-16T09:54:52.259Z,99067.53
2022-12-16T10:01:13.368Z,99068.78
2022-12-16T10:07:41.980Z,99068.19
2022-12-16T10:14:22.189Z,99077.38
2022-12-16T10:20:57.635Z,99078.63
2022-12-16T10:27:34.825Z,99075.56
2022-12-16T10:33:55.539Z,99072.38
2022-12-16T10:40:19.270Z,99066.22
2022-12-16T10:46:46.343Z,99075.25
2022-12-16T10:53:16.598Z,99086.16
2022-12-16T10:59:37.227Z,99084.28
2022-12-16T11:05:57.932Z,99092.84
2022-12-16T11:12:38.796Z,99093.06
2022-12-16T11:19:13.354Z,99087.94
2022-12-16T11:25:40.134Z,99094.00
2022-12-16T11:32:01.496Z,99103.13
2022-12-16T11:38:28.189Z,99101.06
2022-12-16T11:45:38.265Z,99099.28
2022-12-16T11:52:28.071Z,99109.69
2022-12-16T11:59:06.847Z,99098.47
2022-12-16T12:05:32.900Z,99100.59
2022-12-16T12:12:06.037Z,99100.41
2022-12-16T12:19:08.499Z,99103.50
2022-12-16T12:25:45.474Z,99097.94
2022-12-16T12:32:46.307Z,99105.19
2022-12-16T12:39:38.663Z,99094.25
2022-12-16T12:46:17.260Z,99106.47
2022-12-16T12:53:14.596Z,99116.19
2022-12-16T13:00:09.405Z,99121.00
2022-12-16T13:06:34.316Z,99131.75
2022-12-16T13:12:55.132Z,99138.91
2022-12-16T13:19:49.719Z,99131.09
2022-12-16T13:26:11.669Z,99139.78
2022-12-16T13:32:45.265Z,99143.78
2022-12-16T13:39:11.772Z,99152.22
2022-12-16T13:45:52.097Z,99166.69
2022-12-16T13:52:20.950Z,99158.91
2022-12-16T13:59:02.202Z,99174.53
2022-12-16T14:05:32.539Z,99178.16
2022-12-16T14:12:04.253Z,99198.19
2022-12-16T14:18:45.021Z,99204.28
2022-12-16T14:25:05.451Z,99207.72
2022-12-16T14:31:50.760Z,99219.53
2022-12-16T14:38:13.141Z,99225.47
2022-12-16T14:44:35.771Z,99234.78
2022-12-16T14:50:56.332Z,99248.44
2022-12-16T14:57:17.217Z,99249.84
2022-12-16T15:03:59.278Z,99262.16
2022-12-16T15:10:20.617Z,99262.03
2022-12-16T15:16:50.962Z,99271.88
2022-12-16T15:23:11.744Z,99275.63
2022-12-16T15:29:54.103Z,99290.59
2022-12-16T15:36:21.446Z,99295.84
2022-12-16T15:42:51.321Z,99306.34
2022-12-16T15:49:12.129Z,99313.25
2022-12-16T15:55:46.872Z,99320.13
2022-12-16T16:02:07.502Z,99318.97
2022-12-16T16:08:31.259Z,99323.44
2022-12-16T16:14:51.772Z,99334.31
2022-12-16T16:21:12.203Z,99330.91
2022-12-16T16:27:34.150Z,99341.34
2022-12-16T16:33:54.319Z,99350.84
2022-12-16T16:40:14.597Z,99353.72
2022-12-16T16:47:00.142Z,99364.63
2022-12-16T16:53:21.065Z,99371.22
2022-12-16T16:59:43.324Z,99375.53
2022-12-16T17:06:03.942Z,99383.31
2022-12-16T17:12:41.961Z,99386.63
2022-12-16T17:19:02.447Z,99391.03
2022-12-16T17:25:23.548Z,99401.47
2022-12-16T17:31:44.011Z,99408.94
2022-12-16T17:38:04.929Z,99416.31
2022-12-16T17:44:25.362Z,99421.34
2022-12-16T17:50:45.778Z,99429.19
2022-12-16T17:57:06.129Z,99433.69
2022-12-16T18:03:26.301Z,99456.34
2022-12-16T18:09:46.467Z,99451.50
2022-12-16T18:16:13.087Z,99449.81
2022-12-16T18:22:35.455Z,99461.47
2022-12-16T18:28:56.156Z,99459.66
2022-12-16T18:35:16.596Z,99470.25
2022-12-16T18:41:40.766Z,99486.00
2022-12-16T18:48:01.031Z,99484.50
2022-12-16T18:54:21.485Z,99485.03
2022-12-16T19:00:42.032Z,99496.28
2022-12-16T19:07:04.012Z,99494.19
2022-12-16T19:13:44.205Z,99504.91
2022-12-16T19:20:04.872Z,99517.34
2022-12-16T19:26:25.376Z,99520.69
2022-12-16T19:32:45.954Z,99529.59
2022-12-16T19:39:06.671Z,99542.50
2022-12-16T19:45:27.542Z,99550.00
2022-12-16T19:51:49.084Z,99560.28
2022-12-16T19:58:10.056Z,99562.34
2022-12-16T20:04:30.537Z,99566.94
2022-12-16T20:10:56.271Z,99580.28
2022-12-16T20:17:17.010Z,99592.00
2022-12-16T20:23:37.287Z,99588.66
2022-12-16T20:29:57.788Z,99605.38
2022-12-16T20:36:21.439Z,99610.50
2022-12-16T20:42:42.122Z,99612.50
2022-12-16T20:49:05.052Z,99621.16
2022-12-16T20:55:26.008Z,99623.78
2022-12-16T21:02:01.563Z,99641.09
2022-12-16T21:08:26.907Z,99642.56
2022-12-16T21:14:47.435Z,99647.06
2022-12-16T21:21:13.012Z,99655.09
2022-12-16T21:27:33.582Z,99673.63
2022-12-16T21:33:54.337Z,99681.22
2022-12-16T21:40:15.704Z,99688.63
2022-12-16T21:46:36.007Z,99700.13
2022-12-16T21:52:56.544Z,99702.19
2022-12-16T21:59:16.794Z,99705.25
2022-12-16T22:05:37.259Z,99704.88
2022-12-16T22:11:57.754Z,99719.59
2022-12-16T22:18:18.561Z,99720.09
2022-12-16T22:24:38.884Z,99726.81
2022-12-16T22:30:58.989Z,99730.88
2022-12-16T22:37:19.468Z,99734.03
2022-12-16T22:43:50.865Z,99731.59
2022-12-16T22:50:12.599Z,99745.38
2022-12-16T22:56:33.171Z,99746.38
2022-12-16T23:02:53.929Z,99750.44
2022-12-16T23:09:14.620Z,99762.31
2022-12-16T23:15:35.366Z,99770.06
2022-12-16T23:21:56.488Z,99761.47
2022-12-16T23:28:16.975Z,99755.91
2022-12-16T23:34:42.278Z,99763.03
2022-12-16T23:41:06.407Z,99773.69
2022-12-16T23:47:26.968Z,99770.50
2022-12-16T23:53:47.552Z,99780.09
